Time;durP1;ratioP1;P1;durP2;ratioP2;P2;SDS_P1;SDS_P2;PMS_P1;PMS_P2;Temp;Humidity;BMP_temperature;BMP_pressure;BME280_temperature;BME280_humidity;BME280_pressure;Samples;Min_cycle;Max_cycle;Signal;HPM_P1;HPM_P2
2021/04/12 00:02:03;;;;;;;7.78;2.88;;;2.00;89.70;;;;;;5089867;28;20466;-87
2021/04/12 00:05:13;;;;;;;4.68;2.30;;;1.90;89.40;;;;;;5091745;28;20378;-87
2021/04/12 00:07:48;;;;;;;7.80;2.40;;;1.90;90.00;;;;;;5071036;28;20494;-86
2021/04/12 00:10:18;;;;;;;6.97;2.58;;;1.80;90.00;;;;;;5090628;28;20436;-87
2021/04/12 00:12:53;;;;;;;4.57;2.95;;;1.80;89.90;;;;;;5090391;28;20437;-87
2021/04/12 00:15:31;;;;;;;7.30;2.65;;;1.90;90.30;;;;;;5091452;28;20374;-86
2021/04/12 00:18:03;;;;;;;5.75;2.67;;;1.80;89.90;;;;;;5091360;28;20902;-87
2021/04/12 00:20:35;;;;;;;4.97;2.17;;;1.80;89.90;;;;;;5091715;28;20433;-87
2021/04/12 00:23:17;;;;;;;4.60;2.90;;;1.80;90.10;;;;;;5092076;28;20386;-87
2021/04/12 00:26:18;;;;;;;6.90;2.42;;;1.80;90.20;;;;;;5090356;28;20424;-87
2021/04/12 00:28:47;;;;;;;4.72;2.42;;;1.90;90.10;;;;;;5081056;28;20571;-87
2021/04/12 00:31:22;;;;;;;5.45;2.35;;;1.70;90.50;;;;;;5090521;28;20386;-87
2021/04/12 00:33:57;;;;;;;7.65;2.65;;;1.60;90.50;;;;;;5090215;28;20877;-87
2021/04/12 00:36:50;;;;;;;4.38;2.35;;;1.70;90.20;;;;;;5091418;28;20831;-86
2021/04/12 00:39:28;;;;;;;8.57;2.55;;;1.40;91.00;;;;;;5090863;28;20453;-87
2021/04/12 00:42:12;;;;;;;9.82;2.83;;;1.50;90.90;;;;;;5089842;28;20546;-86
2021/04/12 00:44:38;;;;;;;6.32;2.63;;;1.60;90.60;;;;;;5091322;28;20854;-87
2021/04/12 00:47:17;;;;;;;5.97;2.63;;;1.60;90.60;;;;;;5090391;28;20384;-86
2021/04/12 00:50:10;;;;;;;6.03;2.67;;;1.70;90.20;;;;;;5090030;28;20413;-87
2021/04/12 00:52:50;;;;;;;7.97;2.33;;;1.60;90.90;;;;;;5091057;28;20373;-87
2021/04/12 00:55:37;;;;;;;3.57;2.20;;;1.50;91.00;;;;;;5090939;28;20422;-87
2021/04/12 00:58:31;;;;;;;7.95;2.75;;;1.40;91.00;;;;;;5090935;28;20366;-86
2021/04/12 01:01:38;;;;;;;6.85;2.55;;;1.40;91.10;;;;;;5090778;28;20908;-86
2021/04/12 01:04:27;;;;;;;4.97;2.53;;;1.20;90.80;;;;;;5090983;28;20390;-87
2021/04/12 01:07:16;;;;;;;8.68;2.95;;;1.40;91.40;;;;;;5090577;28;20475;-86
2021/04/12 01:09:41;;;;;;;6.70;2.70;;;1.40;91.00;;;;;;5089149;28;20835;-87
2021/04/12 01:12:10;;;;;;;5.20;2.50;;;1.30;91.20;;;;;;5090715;28;20470;-87
2021/04/12 01:15:13;;;;;;;8.23;2.70;;;1.20;91.60;;;;;;5089468;28;20402;-86
2021/04/12 01:18:03;;;;;;;4.85;2.80;;;1.40;91.80;;;;;;5090125;28;20414;-87
2021/04/12 01:20:40;;;;;;;7.10;2.75;;;1.40;91.20;;;;;;5089986;28;20413;-87
2021/04/12 01:23:27;;;;;;;5.95;2.72;;;1.30;91.00;;;;;;5090866;28;20430;-86
2021/04/12 01:26:25;;;;;;;6.63;3.13;;;1.10;91.90;;;;;;5090642;28;20385;-86
2021/04/12 01:29:10;;;;;;;7.53;3.43;;;1.20;91.90;;;;;;5090449;28;20469;-86
2021/04/12 01:32:03;;;;;;;6.20;2.80;;;1.10;91.50;;;;;;5087404;28;20878;-85
2021/04/12 01:35:09;;;;;;;8.80;3.03;;;1.20;91.50;;;;;;5089989;28;20461;-86
2021/04/12 01:38:12;;;;;;;5.53;2.72;;;1.30;91.20;;;;;;5089935;28;20414;-86
2021/04/12 01:41:19;;;;;;;5.75;2.95;;;1.30;90.90;;;;;;5090493;28;20830;-86
2021/04/12 01:44:18;;;;;;;6.22;2.88;;;1.30;91.10;;;;;;5070059;28;20854;-86
2021/04/12 01:47:05;;;;;;;7.00;2.85;;;1.30;91.00;;;;;;5089782;28;20385;-86
2021/04/12 01:50:15;;;;;;;8.35;2.67;;;1.20;91.30;;;;;;5089098;28;20408;-86
2021/04/12 01:53:10;;;;;;;9.07;2.97;;;1.20;91.20;;;;;;5090790;28;20524;-86
2021/04/12 01:55:59;;;;;;;9.63;3.03;;;1.30;91.20;;;;;;5090382;28;20390;-86
2021/04/12 01:58:51;;;;;;;5.88;2.70;;;1.20;91.30;;;;;;5088635;28;20953;-86
2021/04/12 02:01:54;;;;;;;6.90;2.67;;;1.20;91.10;;;;;;5089377;28;20400;-87
2021/04/12 02:04:41;;;;;;;6.07;3.28;;;1.20;91.30;;;;;;5090609;28;20380;-87
2021/04/12 02:07:27;;;;;;;7.20;2.95;;;1.20;91.30;;;;;;5092038;28;20478;-85
2021/04/12 02:10:11;;;;;;;6.53;2.97;;;1.10;91.00;;;;;;5086838;28;20382;-86
2021/04/12 02:12:55;;;;;;;7.65;3.00;;;1.10;91.20;;;;;;5092498;28;20386;-87
2021/04/12 02:15:24;;;;;;;6.85;3.30;;;0.90;91.40;;;;;;5094014;28;20717;-87
2021/04/12 02:18:30;;;;;;;7.03;3.03;;;1.00;91.80;;;;;;5091997;28;20386;-87
2021/04/12 02:21:18;;;;;;;4.32;2.90;;;1.00;91.50;;;;;;5093998;28;20785;-86
2021/04/12 02:24:05;;;;;;;7.13;3.08;;;1.00;91.00;;;;;;5093248;28;20898;-86
2021/04/12 02:26:49;;;;;;;8.87;3.40;;;0.90;91.60;;;;;;5092092;28;20537;-87
2021/04/12 02:29:38;;;;;;;6.63;2.80;;;1.00;91.40;;;;;;5093566;28;20430;-87
2021/04/12 02:32:29;;;;;;;10.85;3.60;;;1.10;91.30;;;;;;5093634;28;20842;-86
2021/04/12 02:35:13;;;;;;;7.88;3.25;;;1.00;91.40;;;;;;5093580;28;20845;-86
2021/04/12 02:37:59;;;;;;;9.93;3.30;;;0.90;91.70;;;;;;5093449;28;20487;-86
2021/04/12 02:40:47;;;;;;;6.17;3.10;;;0.90;91.80;;;;;;5093510;28;20420;-86
2021/04/12 02:43:40;;;;;;;5.25;3.17;;;0.90;91.70;;;;;;5093614;28;20430;-86
2021/04/12 02:46:40;;;;;;;4.90;3.20;;;0.90;91.70;;;;;;5092400;28;20437;-86
2021/04/12 02:49:43;;;;;;;7.05;3.05;;;0.90;91.90;;;;;;5093266;28;20839;-86
2021/04/12 02:52:50;;;;;;;10.38;3.83;;;1.00;91.70;;;;;;5093230;28;20900;-87
2021/04/12 02:55:53;;;;;;;7.05;3.70;;;1.00;91.80;;;;;;5093448;28;20437;-86
2021/04/12 02:58:37;;;;;;;9.80;3.85;;;0.80;91.80;;;;;;5092466;28;20421;-86
2021/04/12 03:01:09;;;;;;;6.97;4.10;;;0.80;92.10;;;;;;5093306;28;20486;-87
2021/04/12 03:04:00;;;;;;;6.07;3.67;;;0.70;92.20;;;;;;5093261;28;20526;-86
2021/04/12 03:07:02;;;;;;;6.88;4.25;;;0.80;92.30;;;;;;5092223;28;20853;-86
2021/04/12 03:10:11;;;;;;;6.32;3.85;;;0.80;91.80;;;;;;5093195;28;20421;-87
2021/04/12 03:13:05;;;;;;;9.03;4.20;;;0.80;92.10;;;;;;5090229;28;20849;-86
2021/04/12 03:15:54;;;;;;;10.60;4.22;;;0.80;92.10;;;;;;5091244;28;20426;-87
2021/04/12 03:18:54;;;;;;;11.43;4.20;;;0.70;92.20;;;;;;5092247;28;20588;-86
2021/04/12 03:21:35;;;;;;;9.35;4.50;;;0.80;92.30;;;;;;5090532;28;20433;-86
2021/04/12 03:24:30;;;;;;;10.35;4.40;;;0.70;91.90;;;;;;5091853;28;20429;-86
2021/04/12 03:27:12;;;;;;;9.02;4.97;;;0.70;92.20;;;;;;5092805;28;20761;-86
2021/04/12 03:30:00;;;;;;;10.15;4.85;;;0.60;92.20;;;;;;5091214;28;20922;-86
2021/04/12 03:32:39;;;;;;;9.45;4.82;;;0.70;92.40;;;;;;5092708;28;20419;-86
2021/04/12 03:35:22;;;;;;;9.25;4.70;;;0.70;92.40;;;;;;5092442;28;20442;-86
2021/04/12 03:38:07;;;;;;;14.25;4.90;;;0.80;92.20;;;;;;5092293;28;20472;-86
2021/04/12 03:40:51;;;;;;;10.70;4.70;;;0.60;92.30;;;;;;5092547;28;20458;-86
2021/04/12 03:43:30;;;;;;;13.40;5.15;;;0.70;92.50;;;;;;5090959;28;20392;-86
2021/04/12 03:46:11;;;;;;;11.35;4.88;;;0.70;92.50;;;;;;5091428;28;20441;-87
2021/04/12 03:48:58;;;;;;;8.48;5.07;;;0.70;92.30;;;;;;5091442;28;20378;-86
2021/04/12 03:51:41;;;;;;;9.68;5.43;;;0.60;92.50;;;;;;5091319;28;20393;-86
2021/04/12 03:54:32;;;;;;;15.10;5.75;;;0.60;92.40;;;;;;5091111;28;20724;-86
2021/04/12 03:57:32;;;;;;;12.20;5.30;;;0.50;92.30;;;;;;5090443;28;20393;-86
2021/04/12 04:00:35;;;;;;;15.98;5.70;;;0.50;92.40;;;;;;5090796;28;20458;-86
2021/04/12 04:03:19;;;;;;;12.20;5.90;;;0.50;92.70;;;;;;5092014;28;20830;-86
2021/04/12 04:06:18;;;;;;;14.33;6.70;;;0.40;92.80;;;;;;5091863;28;20381;-87
2021/04/12 04:09:08;;;;;;;12.93;6.75;;;0.40;93.10;;;;;;5091494;28;20413;-86
2021/04/12 04:11:54;;;;;;;13.90;6.65;;;0.40;92.90;;;;;;5091429;28;20901;-87
2021/04/12 04:14:42;;;;;;;15.23;7.20;;;0.40;92.90;;;;;;5090514;28;20394;-86
2021/04/12 04:17:35;;;;;;;13.82;6.60;;;0.50;92.80;;;;;;5090294;28;20888;-86
2021/04/12 04:20:26;;;;;;;9.52;6.13;;;0.50;92.70;;;;;;5091644;28;20420;-87
2021/04/12 04:23:05;;;;;;;13.83;6.70;;;0.40;92.80;;;;;;5092076;28;20423;-86
2021/04/12 04:25:55;;;;;;;12.18;6.95;;;0.40;93.10;;;;;;5092057;28;20449;-87
2021/04/12 04:28:48;;;;;;;14.00;7.05;;;0.30;92.90;;;;;;5090695;28;20479;-87
2021/04/12 04:31:25;;;;;;;15.73;7.27;;;0.30;94.00;;;;;;5091867;28;20849;-86
2021/04/12 04:34:26;;;;;;;19.85;7.88;;;0.30;93.50;;;;;;5091425;28;20443;-85
2021/04/12 04:37:20;;;;;;;16.60;8.18;;;0.40;93.10;;;;;;5089724;28;20378;-87
2021/04/12 04:40:06;;;;;;;13.47;7.27;;;0.30;93.50;;;;;;5090392;28;20445;-86
2021/04/12 04:42:52;;;;;;;14.90;8.37;;;0.40;93.10;;;;;;5090146;28;20842;-86
2021/04/12 04:45:42;;;;;;;17.92;8.23;;;0.40;93.20;;;;;;5075973;28;20415;-86
2021/04/12 04:48:48;;;;;;;19.52;8.45;;;0.20;93.50;;;;;;5088648;28;20393;-85
2021/04/12 04:51:32;;;;;;;17.70;8.60;;;0.30;93.60;;;;;;5090053;28;20378;-86
2021/04/12 04:54:06;;;;;;;18.23;8.23;;;0.30;93.80;;;;;;5090798;28;20385;-87
2021/04/12 04:56:59;;;;;;;17.13;8.25;;;0.20;93.30;;;;;;5090106;28;20385;-87
2021/04/12 04:59:36;;;;;;;16.08;7.95;;;0.10;93.60;;;;;;5089967;28;20417;-86
2021/04/12 05:02:21;;;;;;;19.33;8.85;;;0.10;94.30;;;;;;5090185;28;20428;-86
2021/04/12 05:04:46;;;;;;;19.10;9.35;;;0.20;94.20;;;;;;5088775;28;20963;-86
2021/04/12 05:07:27;;;;;;;20.83;10.03;;;0.10;94.10;;;;;;5088276;28;20398;-87
2021/04/12 05:10:07;;;;;;;16.33;8.97;;;0.10;94.40;;;;;;5090045;28;20481;-86
2021/04/12 05:13:20;;;;;;;20.77;9.57;;;0.20;93.80;;;;;;5089487;28;20373;-86
2021/04/12 05:16:39;;;;;;;19.05;9.07;;;0.20;93.60;;;;;;5006961;28;20463;-86
2021/04/12 05:19:39;;;;;;;20.70;9.35;;;0.30;93.70;;;;;;5026208;28;20438;-87
2021/04/12 05:22:35;;;;;;;18.58;9.10;;;0.20;93.90;;;;;;5010146;28;20428;-86
2021/04/12 05:25:10;;;;;;;17.15;8.73;;;0.30;93.80;;;;;;5080617;28;20453;-86
2021/04/12 05:28:03;;;;;;;19.88;9.43;;;0.40;93.60;;;;;;5089288;28;20440;-87
2021/04/12 05:30:50;;;;;;;16.20;9.00;;;0.30;93.70;;;;;;5089667;28;20549;-86
2021/04/12 05:33:41;;;;;;;19.95;9.25;;;0.40;93.80;;;;;;5088783;28;20478;-86
2021/04/12 05:36:31;;;;;;;16.25;8.68;;;0.40;93.50;;;;;;5084619;28;20396;-86
2021/04/12 05:39:22;;;;;;;24.60;9.75;;;0.40;93.50;;;;;;5087778;28;20921;-87
2021/04/12 05:41:55;;;;;;;19.35;8.80;;;0.40;93.30;;;;;;5092103;28;20448;-87
2021/04/12 05:44:27;;;;;;;21.98;10.98;;;0.40;93.50;;;;;;5091107;28;20491;-86
2021/04/12 05:47:10;;;;;;;24.33;10.40;;;0.40;93.80;;;;;;5092906;28;20718;-86
2021/04/12 05:49:45;;;;;;;22.40;10.43;;;0.40;94.30;;;;;;5092961;28;20505;-87
2021/04/12 05:52:29;;;;;;;19.05;9.43;;;0.50;94.60;;;;;;5093545;28;20433;-86
2021/04/12 05:55:29;;;;;;;21.08;10.10;;;0.60;94.10;;;;;;5092918;28;20378;-87
2021/04/12 05:58:13;;;;;;;17.02;10.35;;;0.60;94.10;;;;;;5077563;28;20734;-87
2021/04/12 06:00:56;;;;;;;18.05;9.68;;;0.80;94.00;;;;;;5092584;28;20473;-86
2021/04/12 06:03:43;;;;;;;16.47;10.13;;;0.80;94.10;;;;;;5092911;28;20474;-87
2021/04/12 06:06:21;;;;;;;25.55;10.45;;;0.90;94.10;;;;;;5093128;28;20895;-85
2021/04/12 06:09:07;;;;;;;23.88;9.45;;;1.00;93.70;;;;;;5092350;28;20413;-86
2021/04/12 06:12:01;;;;;;;20.67;9.65;;;1.00;93.50;;;;;;5093153;28;20383;-87
2021/04/12 06:14:52;;;;;;;19.65;10.48;;;1.10;93.60;;;;;;5092752;28;20385;-86
2021/04/12 06:17:36;;;;;;;21.45;9.80;;;1.10;93.60;;;;;;5092822;28;20439;-88
2021/04/12 06:20:23;;;;;;;21.00;9.95;;;1.10;94.00;;;;;;5093502;28;20520;-88
2021/04/12 06:23:16;;;;;;;18.42;9.60;;;1.10;93.80;;;;;;5093408;28;20378;-86
2021/04/12 06:26:13;;;;;;;23.30;10.25;;;1.30;93.30;;;;;;5091966;28;20485;-87
2021/04/12 06:28:38;;;;;;;21.85;9.35;;;1.50;93.20;;;;;;5091193;28;20400;-86
2021/04/12 06:31:41;;;;;;;16.25;9.20;;;1.40;92.40;;;;;;5091525;28;20796;-85
2021/04/12 06:34:44;;;;;;;20.70;9.77;;;1.50;92.80;;;;;;5092762;28;20406;-85
2021/04/12 06:37:38;;;;;;;20.75;10.13;;;1.60;93.10;;;;;;5087617;28;20381;-85
2021/04/12 06:40:41;;;;;;;23.30;9.90;;;1.70;92.40;;;;;;5092329;28;20404;-85
2021/04/12 06:43:50;;;;;;;19.95;9.80;;;1.80;92.60;;;;;;5091239;28;20460;-86
2021/04/12 06:46:46;;;;;;;21.80;9.65;;;1.80;92.70;;;;;;5091845;28;20381;-84
2021/04/12 06:49:43;;;;;;;23.42;10.23;;;1.80;92.30;;;;;;5091212;28;20422;-85
2021/04/12 06:52:30;;;;;;;17.55;9.73;;;1.90;92.30;;;;;;5090673;28;20429;-86
2021/04/12 06:55:20;;;;;;;19.33;9.63;;;2.00;92.30;;;;;;5092218;28;20438;-85
2021/04/12 06:58:23;;;;;;;24.08;10.80;;;2.10;91.70;;;;;;5091826;28;20883;-86
2021/04/12 07:01:29;;;;;;;24.77;10.50;;;2.30;91.90;;;;;;5090583;28;20453;-86
2021/04/12 07:04:29;;;;;;;24.02;10.13;;;2.30;91.00;;;;;;5092554;28;20418;-85
2021/04/12 07:07:33;;;;;;;25.70;9.63;;;2.30;91.30;;;;;;5091914;28;20930;-86
2021/04/12 07:10:18;;;;;;;19.17;9.85;;;2.30;91.20;;;;;;5091818;28;20984;-86
2021/04/12 07:13:21;;;;;;;20.30;9.00;;;2.40;91.00;;;;;;5092171;28;20497;-85
2021/04/12 07:16:15;;;;;;;19.52;9.02;;;2.30;90.50;;;;;;5090737;28;20388;-86
2021/04/12 07:19:05;;;;;;;18.40;9.85;;;2.40;91.20;;;;;;5091108;28;20937;-85
2021/04/12 07:21:43;;;;;;;20.13;10.20;;;2.40;90.50;;;;;;5092129;28;20982;-86
2021/04/12 07:24:29;;;;;;;22.08;9.88;;;2.50;91.20;;;;;;5091431;28;20819;-85
2021/04/12 07:27:25;;;;;;;22.33;9.83;;;2.50;90.90;;;;;;5091967;28;20569;-86
2021/04/12 07:30:00;;;;;;;19.83;10.35;;;2.40;90.30;;;;;;5090449;28;20479;-85
2021/04/12 07:33:03;;;;;;;27.05;12.18;;;2.60;90.40;;;;;;5091532;28;20421;-84
2021/04/12 07:36:10;;;;;;;20.67;10.43;;;2.70;91.10;;;;;;5091663;28;20590;-83
2021/04/12 07:39:03;;;;;;;23.63;10.93;;;2.60;90.30;;;;;;5027464;28;20409;-84
2021/04/12 07:41:59;;;;;;;25.98;11.32;;;2.80;90.70;;;;;;5091157;28;20466;-83
2021/04/12 07:44:39;;;;;;;21.25;10.30;;;2.80;90.00;;;;;;5091299;28;20436;-83
2021/04/12 07:47:43;;;;;;;21.42;10.65;;;2.70;90.20;;;;;;5088516;28;20449;-83
2021/04/12 07:50:47;;;;;;;20.77;10.68;;;2.80;90.00;;;;;;5090674;28;20449;-83
2021/04/12 07:53:50;;;;;;;22.10;11.65;;;2.80;90.30;;;;;;5077384;28;20499;-84
2021/04/12 07:57:06;;;;;;;29.33;11.55;;;2.90;88.90;;;;;;5090189;28;20442;-83
2021/04/12 08:00:00;;;;;;;27.97;10.97;;;3.10;89.40;;;;;;5055286;28;20498;-84
2021/04/12 08:02:44;;;;;;;23.00;11.35;;;3.20;89.40;;;;;;5090661;28;20394;-83
2021/04/12 08:05:46;;;;;;;24.35;10.50;;;3.40;89.50;;;;;;5090511;28;20427;-83
2021/04/12 08:08:29;;;;;;;23.23;10.65;;;3.20;88.70;;;;;;5082808;28;20401;-83
2021/04/12 08:11:28;;;;;;;19.15;10.10;;;3.40;88.60;;;;;;5089258;28;20394;-83
2021/04/12 08:14:14;;;;;;;19.38;11.18;;;3.50;89.00;;;;;;5090043;28;20423;-83
2021/04/12 08:16:58;;;;;;;23.08;10.77;;;3.60;88.90;;;;;;5089654;28;20466;-83
2021/04/12 08:19:42;;;;;;;21.13;11.23;;;3.70;87.10;;;;;;5090758;28;20441;-86
2021/04/12 08:22:41;;;;;;;20.23;10.20;;;3.90;88.10;;;;;;5090325;28;20385;-83
2021/04/12 08:25:29;;;;;;;20.80;9.88;;;4.00;86.70;;;;;;5090949;28;20389;-83
2021/04/12 08:28:14;;;;;;;17.08;9.52;;;3.90;86.90;;;;;;5088454;28;20963;-83
2021/04/12 08:31:07;;;;;;;17.80;9.25;;;4.10;85.80;;;;;;5089843;28;20903;-84
2021/04/12 08:34:18;;;;;;;18.20;8.77;;;4.30;86.50;;;;;;5089242;28;20727;-83
2021/04/12 08:37:21;;;;;;;17.92;8.07;;;4.10;85.40;;;;;;5057910;28;20714;-83
2021/04/12 08:40:08;;;;;;;19.70;9.63;;;4.10;86.10;;;;;;5090161;28;20393;-82
2021/04/12 08:42:52;;;;;;;18.05;9.82;;;4.20;85.40;;;;;;5090515;28;20462;-83
2021/04/12 08:45:55;;;;;;;18.48;9.40;;;4.20;84.90;;;;;;5090544;28;20386;-81
2021/04/12 08:48:39;;;;;;;17.30;9.15;;;4.30;85.40;;;;;;5090061;28;20855;-84
2021/04/12 08:51:32;;;;;;;17.60;8.85;;;4.50;85.30;;;;;;5090498;28;20723;-82
2021/04/12 08:54:07;;;;;;;18.83;9.43;;;4.60;83.90;;;;;;5089838;28;20757;-83
2021/04/12 08:57:03;;;;;;;19.52;8.45;;;4.60;86.70;;;;;;5089651;28;20412;-83
2021/04/12 08:59:35;;;;;;;17.95;8.30;;;4.50;82.90;;;;;;5087605;28;20402;-82
2021/04/12 09:02:38;;;;;;;17.27;7.70;;;4.70;84.20;;;;;;5088665;28;20468;-82
2021/04/12 09:05:11;;;;;;;16.63;7.22;;;4.90;83.70;;;;;;5089037;28;20384;-83
2021/04/12 09:08:04;;;;;;;12.00;7.38;;;4.90;83.20;;;;;;5088727;28;20461;-82
2021/04/12 09:11:02;;;;;;;14.13;7.75;;;5.20;82.40;;;;;;5089793;28;20378;-83
2021/04/12 09:14:05;;;;;;;13.30;5.95;;;5.10;83.20;;;;;;5089915;28;20850;-83
2021/04/12 09:16:48;;;;;;;13.10;6.18;;;4.90;81.20;;;;;;5067807;28;20399;-84
2021/04/12 09:19:35;;;;;;;15.98;7.28;;;4.90;80.80;;;;;;5068996;28;20477;-83
2021/04/12 09:22:22;;;;;;;12.97;7.03;;;5.00;81.80;;;;;;5067178;28;20391;-83
2021/04/12 09:25:09;;;;;;;18.42;7.85;;;4.90;82.80;;;;;;5069409;28;20372;-82
2021/04/12 09:27:50;;;;;;;12.45;6.80;;;5.10;82.40;;;;;;5068780;28;20382;-82
2021/04/12 09:30:19;;;;;;;12.70;6.75;;;5.10;80.50;;;;;;5068870;28;20733;-82
2021/04/12 09:33:02;;;;;;;13.15;6.22;;;5.20;79.70;;;;;;5069510;28;20376;-83
2021/04/12 09:36:07;;;;;;;18.25;5.70;;;5.40;79.00;;;;;;5067632;28;20384;-84
2021/04/12 09:38:39;;;;;;;9.98;4.80;;;6.30;77.00;;;;;;5068376;28;20387;-83
2021/04/12 09:41:23;;;;;;;10.25;5.15;;;6.50;75.30;;;;;;5069332;28;20433;-84
2021/04/12 09:44:27;;;;;;;12.00;4.70;;;6.50;78.30;;;;;;5068898;28;20375;-83
2021/04/12 09:47:30;;;;;;;10.40;4.28;;;6.10;72.70;;;;;;5069017;28;20379;-84
2021/04/12 09:50:01;;;;;;;7.20;3.10;;;6.60;72.70;;;;;;5085817;28;21252;-82
2021/04/12 09:52:33;;;;;;;8.23;3.90;;;6.10;70.70;;;;;;5087175;28;20862;-84
2021/04/12 09:55:36;;;;;;;10.43;4.32;;;5.90;72.60;;;;;;5088953;28;20461;-83
2021/04/12 09:58:26;;;;;;;7.60;4.60;;;5.50;76.60;;;;;;5086699;28;20386;-82
2021/04/12 10:01:07;;;;;;;11.05;5.90;;;5.20;76.20;;;;;;5088893;28;20435;-82
2021/04/12 10:04:11;;;;;;;11.80;4.63;;;5.40;78.50;;;;;;5089362;28;20406;-82
2021/04/12 10:06:55;;;;;;;9.73;3.97;;;5.10;75.90;;;;;;5063585;28;20386;-84
2021/04/12 10:09:48;;;;;;;7.45;3.67;;;5.00;77.10;;;;;;5089392;28;20448;-83
2021/04/12 10:12:31;;;;;;;6.93;3.58;;;4.90;75.40;;;;;;5088884;28;20466;-83
2021/04/12 10:14:59;;;;;;;7.60;4.05;;;4.80;74.80;;;;;;5088613;28;20378;-83
2021/04/12 10:17:49;;;;;;;7.38;4.70;;;4.60;77.10;;;;;;5088647;28;20382;-83
2021/04/12 10:20:34;;;;;;;9.88;5.40;;;5.30;77.80;;;;;;5088395;28;20417;-82
2021/04/12 10:23:05;;;;;;;10.18;5.43;;;6.10;74.60;;;;;;5087021;28;20381;-83
2021/04/12 10:25:39;;;;;;;8.30;5.60;;;6.00;76.30;;;;;;5086189;28;20469;-83
2021/04/12 10:28:19;;;;;;;9.40;3.50;;;5.90;77.10;;;;;;5090820;28;20438;-83
2021/04/12 10:31:02;;;;;;;2.65;1.20;;;5.20;74.60;;;;;;5090131;28;20755;-83
2021/04/12 10:33:35;;;;;;;3.42;1.05;;;4.70;70.00;;;;;;5092216;28;20809;-81
2021/04/12 10:36:06;;;;;;;3.63;1.17;;;4.60;73.70;;;;;;5092145;28;20850;-81
2021/04/12 10:38:42;;;;;;;6.88;1.23;;;4.00;74.20;;;;;;5091939;28;20844;-83
2021/04/12 10:41:30;;;;;;;1.90;1.20;;;3.40;74.20;;;;;;5091892;28;20377;-83
2021/04/12 10:44:05;;;;;;;1.90;0.90;;;3.90;75.80;;;;;;5092554;28;20374;-83
2021/04/12 10:46:59;;;;;;;1.73;1.23;;;3.90;74.20;;;;;;5090741;28;20381;-83
2021/04/12 10:49:40;;;;;;;3.38;1.63;;;4.30;71.70;;;;;;5092734;28;20843;-83
2021/04/12 10:52:36;;;;;;;1.52;1.40;;;4.20;73.10;;;;;;5090264;28;20390;-83
2021/04/12 10:55:11;;;;;;;5.00;1.80;;;4.30;71.90;;;;;;5091637;28;20435;-84
2021/04/12 10:58:08;;;;;;;4.20;2.28;;;4.30;71.30;;;;;;5091261;28;20692;-82
2021/04/12 11:00:52;;;;;;;4.95;2.10;;;4.90;74.10;;;;;;5075407;28;20430;-83
2021/04/12 11:03:40;;;;;;;5.32;2.60;;;5.50;70.50;;;;;;5090570;28;20396;-84
2021/04/12 11:06:28;;;;;;;9.05;2.72;;;6.40;69.90;;;;;;5092041;28;20405;-83
2021/04/12 11:09:31;;;;;;;3.90;2.70;;;6.30;67.50;;;;;;5089592;28;20390;-84
2021/04/12 11:12:07;;;;;;;3.57;2.47;;;7.20;66.00;;;;;;5091870;28;20906;-85
2021/04/12 11:14:50;;;;;;;5.60;2.90;;;7.50;65.60;;;;;;5089874;28;20469;-84
2021/04/12 11:17:35;;;;;;;8.10;2.95;;;7.00;66.80;;;;;;5091153;28;20381;-84
2021/04/12 11:20:25;;;;;;;9.63;2.95;;;7.50;67.40;;;;;;5091496;28;20458;-84
2021/04/12 11:23:01;;;;;;;6.72;2.55;;;6.90;65.80;;;;;;5089797;28;20394;-83
2021/04/12 11:26:12;;;;;;;3.95;2.20;;;6.30;67.50;;;;;;5090191;28;20425;-81
2021/04/12 11:28:53;;;;;;;7.72;2.55;;;5.30;72.50;;;;;;5067708;28;20374;-81
2021/04/12 11:31:43;;;;;;;3.70;1.90;;;5.00;73.50;;;;;;5091101;28;20378;-81
2021/04/12 11:34:19;;;;;;;5.10;1.75;;;5.00;75.60;;;;;;5091628;28;20866;-82
2021/04/12 11:37:10;;;;;;;5.88;1.70;;;4.70;77.30;;;;;;5089130;28;20394;-82
2021/04/12 11:39:41;;;;;;;4.28;1.40;;;4.60;78.40;;;;;;5090786;28;20489;-80
2021/04/12 11:42:19;;;;;;;2.20;1.33;;;4.70;76.90;;;;;;5090292;28;20408;-81
2021/04/12 11:44:53;;;;;;;3.70;1.77;;;4.50;75.40;;;;;;5089381;28;20544;-74
2021/04/12 11:47:48;;;;;;;2.60;1.60;;;4.70;76.10;;;;;;5090448;28;20409;-76
2021/04/12 11:50:35;;;;;;;2.83;1.80;;;5.00;76.40;;;;;;5090544;28;20374;-76
2021/04/12 11:53:14;;;;;;;3.55;2.40;;;5.80;74.30;;;;;;5090587;28;20410;-76
2021/04/12 11:56:08;;;;;;;3.80;2.40;;;5.60;76.40;;;;;;5090718;28;20383;-76
2021/04/12 11:58:53;;;;;;;4.73;1.90;;;6.40;75.60;;;;;;5090358;28;20389;-76
2021/04/12 12:01:35;;;;;;;2.28;1.90;;;6.60;72.80;;;;;;5083013;28;20734;-76
2021/04/12 12:04:13;;;;;;;4.55;2.00;;;5.50;76.50;;;;;;5089036;28;20386;-77
2021/04/12 12:06:46;;;;;;;3.20;1.87;;;5.40;77.80;;;;;;5089582;28;20560;-83
2021/04/12 12:09:29;;;;;;;3.58;1.70;;;4.90;80.90;;;;;;5090625;28;20382;-83
2021/04/12 12:12:04;;;;;;;2.67;1.70;;;5.10;80.00;;;;;;5090542;28;20420;-83
2021/04/12 12:14:55;;;;;;;2.25;1.75;;;5.50;81.90;;;;;;5091196;28;20402;-84
2021/04/12 12:17:26;;;;;;;1.63;1.40;;;5.60;78.20;;;;;;5089755;28;20381;-83
2021/04/12 12:20:05;;;;;;;3.03;1.45;;;5.60;78.00;;;;;;5090564;28;20795;-85
2021/04/12 12:22:59;;;;;;;2.33;1.42;;;5.80;78.10;;;;;;5090773;28;20429;-84
2021/04/12 12:25:42;;;;;;;3.33;1.60;;;6.40;74.90;;;;;;5088613;28;20731;-81
2021/04/12 12:28:38;;;;;;;4.57;1.30;;;6.20;75.00;;;;;;5090098;28;20406;-82
2021/04/12 12:34:35;;;;;;;2.25;1.50;;;5.90;75.20;;;;;;5090404;28;20698;-82
2021/04/12 12:37:19;;;;;;;4.80;1.08;;;5.80;73.30;;;;;;5089725;28;20366;-81
2021/04/12 12:39:52;;;;;;;2.03;1.23;;;6.20;70.80;;;;;;5087492;28;20405;-83
2021/04/12 12:42:27;;;;;;;3.70;1.53;;;6.30;70.30;;;;;;5090334;28;20385;-82
2021/04/12 12:44:55;;;;;;;2.83;1.85;;;6.70;70.40;;;;;;5090157;28;20389;-81
2021/04/12 12:47:25;;;;;;;3.65;1.33;;;6.90;68.00;;;;;;5088150;28;20422;-80
2021/04/12 12:49:56;;;;;;;4.03;1.13;;;6.60;68.70;;;;;;5088310;28;20393;-80
2021/04/12 12:52:37;;;;;;;2.97;1.27;;;6.70;61.70;;;;;;5088443;28;20628;-80
2021/04/12 12:55:11;;;;;;;2.50;1.20;;;6.90;62.20;;;;;;5088678;28;20408;-81
2021/04/12 12:57:43;;;;;;;4.03;1.33;;;6.90;60.00;;;;;;5088195;28;20422;-82
2021/04/12 13:00:15;;;;;;;3.58;1.30;;;7.10;62.50;;;;;;5090053;28;20435;-81
2021/04/12 13:02:42;;;;;;;4.32;1.10;;;7.00;60.00;;;;;;5089346;28;20426;-81
2021/04/12 13:05:24;;;;;;;2.28;1.20;;;7.10;65.50;;;;;;5088097;28;20382;-81
2021/04/12 13:07:53;;;;;;;4.13;2.17;;;7.40;60.90;;;;;;5088777;28;20378;-81
2021/04/12 13:10:25;;;;;;;6.80;1.70;;;6.80;61.30;;;;;;5089903;28;20424;-81
2021/04/12 13:12:53;;;;;;;6.13;2.08;;;7.20;62.10;;;;;;5090013;28;20389;-82
2021/04/12 13:15:27;;;;;;;2.83;1.70;;;7.30;62.10;;;;;;5088377;28;20854;-82
2021/04/12 13:18:26;;;;;;;3.83;1.98;;;7.30;58.10;;;;;;5089538;28;20374;-82
2021/04/12 13:21:10;;;;;;;3.05;1.73;;;7.50;59.50;;;;;;5083345;28;20496;-84
2021/04/12 13:23:50;;;;;;;4.60;2.60;;;7.20;61.20;;;;;;5088124;28;20757;-80
2021/04/12 13:26:37;;;;;;;4.77;2.30;;;7.60;61.40;;;;;;5087766;28;20425;-79
2021/04/12 13:29:13;;;;;;;4.75;2.45;;;7.90;59.10;;;;;;5086672;28;20398;-84
2021/04/12 13:31:46;;;;;;;7.93;2.47;;;7.40;57.60;;;;;;5087752;28;20843;-84
2021/04/12 13:34:20;;;;;;;4.88;2.40;;;7.40;58.30;;;;;;5088338;28;20424;-82
2021/04/12 13:36:59;;;;;;;4.65;2.20;;;7.50;56.00;;;;;;5088469;28;20913;-83
2021/04/12 13:39:37;;;;;;;6.72;2.50;;;7.10;57.80;;;;;;5088621;28;20424;-81
2021/04/12 13:42:19;;;;;;;5.90;2.35;;;7.40;56.60;;;;;;5087955;28;20408;-82
2021/04/12 13:45:00;;;;;;;5.78;2.70;;;7.10;55.80;;;;;;5089041;28;20381;-83
2021/04/12 13:47:42;;;;;;;4.70;2.90;;;7.80;59.60;;;;;;5088428;28;20428;-84
2021/04/12 13:50:22;;;;;;;5.72;3.17;;;7.40;59.40;;;;;;5088697;28;20390;-83
2021/04/12 13:52:50;;;;;;;4.50;3.15;;;6.90;61.40;;;;;;5088891;28;20374;-83
2021/04/12 13:55:30;;;;;;;8.48;2.70;;;7.10;60.10;;;;;;5087137;28;20440;-82
2021/04/12 13:58:09;;;;;;;4.53;2.78;;;7.50;60.50;;;;;;5088384;28;20374;-83
2021/04/12 14:00:59;;;;;;;3.88;2.30;;;7.20;62.50;;;;;;5088526;28;20813;-82
2021/04/12 14:03:31;;;;;;;7.00;2.50;;;6.90;61.80;;;;;;5089375;28;20393;-82
2021/04/12 14:06:14;;;;;;;9.15;2.80;;;6.90;64.10;;;;;;5110903;28;20894;-83
2021/04/12 14:08:51;;;;;;;6.78;2.75;;;6.40;69.60;;;;;;5111626;28;20698;-82
2021/04/12 14:11:27;;;;;;;18.73;4.20;;;6.60;70.70;;;;;;5111295;28;20849;-82
2021/04/12 14:14:05;;;;;;;3.17;2.10;;;7.10;69.20;;;;;;5113134;28;20368;-84
2021/04/12 14:16:32;;;;;;;3.25;2.15;;;7.00;71.00;;;;;;5112614;28;20811;-80
2021/04/12 14:19:26;;;;;;;5.23;2.50;;;6.30;70.70;;;;;;5112814;28;20490;-82
2021/04/12 14:22:04;;;;;;;4.45;2.17;;;5.40;74.40;;;;;;5112659;28;20376;-81
2021/04/12 14:24:36;;;;;;;4.45;2.88;;;5.50;76.80;;;;;;5113311;28;20457;-82
2021/04/12 14:27:12;;;;;;;5.77;3.67;;;4.70;79.00;;;;;;5111197;28;20388;-81
2021/04/12 14:29:51;;;;;;;5.47;3.75;;;4.60;82.30;;;;;;5113476;28;20395;-79
2021/04/12 14:32:23;;;;;;;5.10;3.45;;;4.40;81.50;;;;;;5112095;28;20432;-79
2021/04/12 14:34:55;;;;;;;4.53;3.53;;;4.40;83.20;;;;;;5113168;28;20452;-81